Архив погоды в Баимре

Метеограмма Баимра
Пятница, 26 Мая
Время местн. Темп Ветер Видим Явления Облачность нижн/средн/верх Атм. давл. Влжн Точка росы ВНГО R Сост. почвы Tg s
Напр Скр Прв ур.ст ур.м изм
12:00 +11.2° Ю 3 8 20 км - ясно 724 749 -0.8 34% -4.1° более 2.5 км - - - -
09:00 +7.6° Ю 4 6 20 км - ясно 725 750 -0.4 45% -3.6° более 2.5 км 0 Влажная (без луж) -1° -
06:00 +1.3° С 1 2 20 км - ясно 725 751 -0.2 67% -4.2° более 2.5 км - - - -
03:00 -3.2° З 1 2 20 км - незначительная облачность 725 752 +0.2 85% -5.3° 1.5 км - - - -
00:00 +3.6° В,Ю-В 1 8 20 км - облачно с прояснениями 725 751 +0.2 58% -3.8° 1.5 км - - - -
Четверг, 25 Мая
Время местн. Темп Ветер Видим Явления Облачность нижн/средн/верх Атм. давл. Влжн Точка росы ВНГО R Сост. почвы Tg s
Напр Скр Прв ур.ст ур.м изм
21:00 +9.6° В 4 7 20 км - переменная облачность 725 750 -0.2 32% -6.4° 1.5 км 0 - - -
18:00 +11.7° В,С-В 4 10 20 км - облачно с прояснениями 725 750 -1.1 28% -6° 1 км - - - -
15:00 +10.5° С 3 8 20 км - переменная облачность 726 752 -1.4 28% -7.1° 1 км - - - -
12:00 +9.4° С 2 7 20 км - переменная облачность 728 753 -1.5 32% -6.4° 1 км - - - -
09:00 +6.9° С 2 4 20 км - ясно 729 755 -1.1 40% -5.9° более 2.5 км 0 Влажная (без луж) -2° -
06:00 -0.8° В 1 3 20 км - незначительная облачность 730 757 -0.5 71% -5.3° более 2.5 км - - - -
03:00 -5.5° Ю 1 3 20 км - незначительная облачность 731 758 +0.1 92% -6.6° более 2.5 км - - - -
00:00 -0.3° Ю 1 5 20 км - незначительная облачность 731 757 +0.4 65% -6.1° более 2.5 км - - - -
Среда, 24 Мая
Время местн. Темп Ветер Видим Явления Облачность нижн/средн/верх Атм. давл. Влжн Точка росы ВНГО R Сост. почвы Tg s
Напр Скр Прв ур.ст ур.м изм
21:00 +8.3° С,С-В 3 7 20 км - облачно с прояснениями 730 756 0 32% -7.4° более 2.5 км 0 - - -
18:00 +10° С 4 7 20 км - переменная облачность 730 756 -0.6 29% -7.4° 1 км - - - -
15:00 +9.8° З,С-З 3 7 20 км - переменная облачность 731 757 -0.8 29% -7.4° 1 км - - - -
12:00 +7° С 2 6 20 км - облачно с прояснениями 732 758 -0.2 44% -4.4° 1 км - - - -
09:00 +4° С 2 5 20 км - преимущественно облачно 732 758 +0.4 55% -4.3° 1 км 0 Влажная (без луж) -1° -
06:00 -3° В,Ю-В 1 2 20 км - переменная облачность 732 759 +0.8 86% -5° 1 км - - - -
03:00 -3.1° штиль 0 6 20 км - переменная облачность 731 758 +0.6 88% -4.8° 1 км - - - -
00:00 +3.2° С-З 3 8 20 км - переменная облачность 730 756 +0.8 53% -5.5° более 2.5 км - - - -
Вторник, 23 Мая
Время местн. Темп Ветер Видим Явления Облачность нижн/средн/верх Атм. давл. Влжн Точка росы ВНГО R Сост. почвы Tg s
Напр Скр Прв ур.ст ур.м изм
21:00 +8.6° С-В 4 8 20 км - переменная облачность 729 755 +0.5 32% -7.1° 1.5 км 0 - - -
15:00 +9.8° С,С-В 3 9 20 км ливневый дождь преимущественно облачно 729 755 -0.4 39% -3.6° 1 км - - - -
12:00 +8.1° С 3 7 20 км - преимущественно облачно 729 755 -0.6 43% -3.8° 1 км - - - -
09:00 +6.7° С 2 5 20 км - облачно 730 756 +0.2 48% -3.4° более 2.5 км 0 Влажная (без луж) -1° -
06:00 -0.2° Ю 1 2 20 км - облачно с прояснениями 730 756 +0.2 80% -3.2° более 2.5 км - - - -